Time;durP1;ratioP1;P1;durP2;ratioP2;P2;SDS_P1;SDS_P2;PMS_P1;PMS_P2;Temp;Humidity;BMP_temperature;BMP_pressure;BME280_temperature;BME280_humidity;BME280_pressure;Samples;Min_cycle;Max_cycle;Signal;HPM_P1;HPM_P2
2022/12/14 00:00:33;;;;;;;10.07;6.93;;;;;;;0.34;46.77;96831.19;8382015;28;20259;-70
2022/12/14 00:04:37;;;;;;;10.13;7.17;;;;;;;0.09;47.63;96817.28;8382080;28;20225;-70
2022/12/14 00:08:41;;;;;;;10.63;7.47;;;;;;;-0.24;47.77;96815.41;8381305;28;20232;-70
2022/12/14 00:12:43;;;;;;;9.87;7.23;;;;;;;-1.02;49.72;96804.97;8381497;28;20232;-70
2022/12/14 00:16:46;;;;;;;11.67;7.87;;;;;;;-0.30;48.79;96815.53;8381636;28;20236;-69
2022/12/14 00:20:51;;;;;;;11.83;7.53;;;;;;;0.32;46.83;96825.28;8381387;28;20421;-70
2022/12/14 00:24:54;;;;;;;12.83;8.20;;;;;;;-0.80;49.05;96809.66;8380462;28;20229;-69
2022/12/14 00:28:57;;;;;;;10.60;7.60;;;;;;;-0.72;48.96;96807.00;8380815;28;20233;-69
2022/12/14 00:33:00;;;;;;;12.10;8.03;;;;;;;-0.51;48.87;96793.91;8381027;28;20391;-69
2022/12/14 00:37:04;;;;;;;11.70;8.30;;;;;;;-0.17;48.87;96800.00;8380570;28;20414;-69
2022/12/14 00:41:08;;;;;;;10.37;7.50;;;;;;;-0.61;49.33;96789.84;8380481;28;20249;-70
2022/12/14 00:45:11;;;;;;;10.37;7.13;;;;;;;-0.53;49.01;96795.63;8381147;28;20224;-71
2022/12/14 00:49:14;;;;;;;13.27;7.73;;;;;;;-0.81;49.64;96783.41;8380691;28;20415;-70
2022/12/14 00:53:18;;;;;;;11.33;7.90;;;;;;;-0.15;47.85;96781.31;8380530;28;20266;-70
2022/12/14 00:57:21;;;;;;;12.70;8.30;;;;;;;-0.07;48.27;96774.34;8380434;28;20224;-70
2022/12/14 01:01:23;;;;;;;12.40;7.93;;;;;;;0.05;47.54;96785.13;8379501;28;20236;-70
2022/12/14 01:05:27;;;;;;;13.13;8.20;;;;;;;-0.36;48.45;96782.59;8380149;28;20247;-70
2022/12/14 01:09:31;;;;;;;14.70;8.70;;;;;;;-0.17;48.54;96777.09;8380007;28;20253;-70
2022/12/14 01:13:35;;;;;;;13.80;8.30;;;;;;;-0.05;48.33;96792.97;8380062;28;20236;-70
2022/12/14 01:17:37;;;;;;;14.57;8.87;;;;;;;-0.32;48.59;96794.38;8380236;28;20524;-70
2022/12/14 01:21:40;;;;;;;14.17;8.10;;;;;;;0.18;47.39;96795.03;8380068;28;20224;-70
2022/12/14 01:25:44;;;;;;;11.57;8.00;;;;;;;0.18;47.50;96800.09;8379680;28;20457;-70
2022/12/14 01:29:50;;;;;;;11.87;8.33;;;;;;;0.40;47.07;96804.75;8380189;28;20225;-70
2022/12/14 01:33:53;;;;;;;12.60;8.50;;;;;;;0.02;47.68;96803.00;8379242;28;20509;-70
2022/12/14 01:37:56;;;;;;;12.17;8.20;;;;;;;0.59;46.37;96802.59;8379522;28;20245;-69
2022/12/14 01:42:01;;;;;;;12.57;8.60;;;;;;;0.08;46.89;96792.72;8379424;28;20416;-69
2022/12/14 01:46:03;;;;;;;12.40;8.50;;;;;;;-0.59;48.43;96780.50;8379523;28;20232;-69
2022/12/14 01:50:20;;;;;;;13.37;8.27;;;;;;;-0.64;48.63;96704.28;8379550;28;20233;-70
2022/12/14 01:54:24;;;;;;;12.57;8.23;;;;;;;-1.18;50.52;96752.75;8379109;28;20226;-70
2022/12/14 01:58:28;;;;;;;13.07;8.80;;;;;;;-0.29;48.43;96768.03;8379449;28;20228;-70
2022/12/14 02:02:31;;;;;;;12.33;8.53;;;;;;;-0.57;49.34;96755.88;8379414;28;20225;-70
2022/12/14 02:06:36;;;;;;;14.83;9.17;;;;;;;-1.26;50.61;96745.22;8379490;28;20225;-70
2022/12/14 02:10:39;;;;;;;12.43;8.27;;;;;;;-1.13;50.26;96753.50;8381102;28;20241;-70
2022/12/14 02:14:44;;;;;;;14.23;9.60;;;;;;;-0.86;49.82;96752.16;8385570;28;20244;-70
2022/12/14 02:18:47;;;;;;;13.23;8.53;;;;;;;-1.08;50.58;96751.72;8385481;28;20235;-70
2022/12/14 02:23:25;;;;;;;13.70;8.63;;;;;;;-1.03;50.09;96749.94;8384890;28;20559;-70
2022/12/14 02:27:43;;;;;;;13.07;9.00;;;;;;;-0.73;49.61;96751.94;8384329;28;20292;-70
2022/12/14 02:31:54;;;;;;;14.03;9.30;;;;;;;-1.07;50.68;96753.38;8385093;28;20220;-70
2022/12/14 02:35:59;;;;;;;13.77;9.93;;;;;;;-0.22;48.78;96747.50;8384210;28;20229;-69
2022/12/14 02:40:12;;;;;;;13.27;9.40;;;;;;;-0.71;49.05;96738.31;8384507;28;20229;-69
2022/12/14 02:44:22;;;;;;;15.37;10.27;;;;;;;0.29;47.80;96722.66;8384589;28;20229;-70
2022/12/14 02:48:30;;;;;;;13.97;9.17;;;;;;;-0.26;48.74;96709.47;8384166;28;20232;-70
2022/12/14 02:52:41;;;;;;;12.90;8.97;;;;;;;-0.32;49.02;96712.97;8384275;28;20224;-70
2022/12/14 02:56:46;;;;;;;13.50;9.30;;;;;;;-0.11;48.23;96665.84;8384023;28;20240;-70
2022/12/14 03:00:49;;;;;;;15.97;9.73;;;;;;;-0.13;48.83;96697.28;8384074;28;20424;-70
2022/12/14 03:04:53;;;;;;;14.47;9.40;;;;;;;-0.12;49.10;96684.53;8383206;28;20263;-69
2022/12/14 03:08:58;;;;;;;14.87;9.50;;;;;;;-0.22;48.73;96680.53;8383478;28;20228;-69
2022/12/14 03:13:08;;;;;;;13.47;9.53;;;;;;;-0.41;49.62;96668.19;8383637;28;20232;-70
2022/12/14 03:17:14;;;;;;;14.30;9.83;;;;;;;-0.56;50.10;96677.88;8383380;28;20228;-70
2022/12/14 03:21:26;;;;;;;15.27;10.03;;;;;;;-0.69;49.38;96670.47;8382387;28;20225;-70
2022/12/14 03:25:32;;;;;;;15.67;10.23;;;;;;;-0.31;48.46;96658.66;8383036;28;20233;-70
2022/12/14 03:29:40;;;;;;;14.83;9.63;;;;;;;-0.44;48.72;96655.56;8383200;28;20235;-70
2022/12/14 03:33:45;;;;;;;13.60;9.97;;;;;;;0.20;48.07;96657.50;8382969;28;20248;-70
2022/12/14 03:37:52;;;;;;;15.67;9.77;;;;;;;-0.65;49.26;96649.22;8382520;28;20237;-70
2022/12/14 03:41:58;;;;;;;15.53;9.80;;;;;;;-0.57;48.78;96597.34;8382040;28;20260;-69
2022/12/14 03:46:05;;;;;;;15.53;10.23;;;;;;;-0.04;47.52;96585.09;8382493;28;20241;-70
2022/12/14 03:50:11;;;;;;;14.17;9.53;;;;;;;0.16;47.28;96635.53;8382429;28;20478;-70
2022/12/14 03:54:21;;;;;;;13.57;9.90;;;;;;;0.28;46.59;96637.75;8382502;28;20420;-70
2022/12/14 03:58:35;;;;;;;16.50;9.57;;;;;;;-0.17;48.19;96624.44;8382238;28;20514;-71
2022/12/14 04:02:42;;;;;;;14.03;9.93;;;;;;;-0.46;48.47;96618.28;8381880;28;20233;-70
2022/12/14 04:06:50;;;;;;;13.57;9.60;;;;;;;-0.15;48.07;96612.50;8382157;28;20225;-70
2022/12/14 04:19:42;;;;;;;14.53;9.80;;;;;;;0.06;47.86;96618.78;8381833;28;20236;-70
2022/12/14 04:29:55;;;;;;;14.40;9.97;;;;;;;0.38;46.66;96616.31;8380909;28;20240;-70
2022/12/14 04:32:38;;;;;;;14.80;10.40;;;;;;;0.45;46.80;96605.94;8380975;28;20255;-70
2022/12/14 04:36:45;;;;;;;16.33;10.10;;;;;;;0.07;47.51;96600.13;8381144;28;20221;-70
2022/12/14 04:40:50;;;;;;;13.37;9.60;;;;;;;-0.15;48.58;96594.69;8381004;28;20398;-70
2022/12/14 04:44:58;;;;;;;16.53;10.43;;;;;;;-0.52;48.13;96588.75;8380357;28;20401;-69
2022/12/14 04:49:06;;;;;;;13.87;10.30;;;;;;;-0.17;47.96;96582.03;8380703;28;20229;-70
2022/12/14 04:53:11;;;;;;;15.30;10.07;;;;;;;-0.57;48.56;96575.31;8380298;28;20291;-69
2022/12/14 04:57:18;;;;;;;15.63;10.50;;;;;;;-0.53;48.26;96563.34;8380616;28;20274;-70
2022/12/14 05:01:32;;;;;;;16.00;10.20;;;;;;;-0.14;48.23;96548.84;8380574;28;20231;-70
2022/12/14 05:05:42;;;;;;;14.20;9.73;;;;;;;-0.04;47.85;96547.78;8380321;28;20512;-70
2022/12/14 05:09:51;;;;;;;16.27;9.97;;;;;;;-0.07;47.36;96540.19;8380309;28;20241;-70
2022/12/14 05:13:53;;;;;;;15.17;10.33;;;;;;;0.07;47.73;96546.66;8379835;28;20498;-70
2022/12/14 05:18:02;;;;;;;12.97;9.23;;;;;;;-0.23;48.47;96538.91;8380349;28;20243;-70
2022/12/14 05:22:06;;;;;;;15.63;10.67;;;;;;;-0.23;48.97;96533.81;8379910;28;20229;-70
2022/12/14 05:26:10;;;;;;;13.87;10.13;;;;;;;0.05;47.46;96528.88;8379463;28;20240;-70
2022/12/14 05:30:13;;;;;;;14.03;10.07;;;;;;;0.28;47.30;96530.81;8380218;28;20448;-70
2022/12/14 05:34:18;;;;;;;12.93;9.27;;;;;;;-0.04;47.86;96512.13;8380086;28;20244;-70
2022/12/14 05:38:20;;;;;;;17.30;10.57;;;;;;;-0.96;49.99;96505.84;8379895;28;20544;-70
2022/12/14 05:42:23;;;;;;;15.30;10.40;;;;;;;-0.67;49.63;96500.91;8379934;28;20243;-70
2022/12/14 05:46:26;;;;;;;13.80;9.60;;;;;;;-0.58;50.09;96502.44;8383269;28;20407;-70
2022/12/14 05:50:30;;;;;;;18.20;12.87;;;;;;;-0.62;49.49;96499.13;8386285;28;20330;-70
2022/12/14 05:54:33;;;;;;;16.43;11.60;;;;;;;-0.16;48.78;96504.78;8386188;28;20232;-70
2022/12/14 05:58:36;;;;;;;19.60;11.80;;;;;;;-0.05;48.49;96505.38;8386079;28;20232;-70
2022/12/14 06:02:39;;;;;;;23.80;13.57;;;;;;;-0.06;48.37;96501.16;8385785;28;20433;-70
2022/12/14 06:06:43;;;;;;;14.87;10.23;;;;;;;-0.22;49.31;96502.41;8385873;28;20228;-70
2022/12/14 06:10:46;;;;;;;15.50;10.87;;;;;;;-0.25;49.78;96495.69;8385584;28;20236;-70
2022/12/14 06:14:49;;;;;;;16.17;10.80;;;;;;;-0.19;47.90;96479.44;8385575;28;20237;-70
2022/12/14 06:18:52;;;;;;;15.80;10.40;;;;;;;-0.28;48.62;96488.13;8385349;28;20381;-71
2022/12/14 06:22:57;;;;;;;15.57;10.73;;;;;;;0.11;48.41;96492.25;8384839;28;20294;-70
2022/12/14 06:27:00;;;;;;;15.83;10.77;;;;;;;-0.12;49.31;96486.03;8384916;28;20240;-70
2022/12/14 06:31:03;;;;;;;14.30;10.87;;;;;;;-0.53;49.46;96482.81;8384745;28;20228;-69
2022/12/14 06:35:08;;;;;;;15.30;10.67;;;;;;;-0.87;50.60;96481.06;8384785;28;20286;-70
2022/12/14 06:39:13;;;;;;;14.90;10.97;;;;;;;-0.39;50.42;96467.22;8384241;28;20290;-69
2022/12/14 06:43:16;;;;;;;14.87;10.00;;;;;;;-0.52;50.25;96464.13;8384534;28;20445;-70
2022/12/14 06:47:19;;;;;;;14.07;10.13;;;;;;;-0.18;50.35;96477.72;8384692;28;20248;-70
2022/12/14 06:51:23;;;;;;;13.87;10.20;;;;;;;0.19;48.61;96463.16;8384328;28;20236;-70
2022/12/14 06:55:28;;;;;;;16.47;11.53;;;;;;;0.65;47.72;96478.88;8383622;28;20294;-70
2022/12/14 06:59:31;;;;;;;15.50;10.93;;;;;;;-0.05;49.22;96477.38;8384075;28;20224;-70
2022/12/14 07:03:34;;;;;;;16.50;10.93;;;;;;;-0.41;50.23;96479.97;8383753;28;20416;-70
2022/12/14 07:07:37;;;;;;;16.97;11.70;;;;;;;-0.24;49.15;96468.53;8383672;28;20244;-70
2022/12/14 07:11:42;;;;;;;14.50;10.73;;;;;;;-0.79;50.44;96450.38;8383704;28;20225;-70
2022/12/14 07:15:44;;;;;;;18.47;12.17;;;;;;;-0.35;50.43;96437.44;8383225;28;20232;-71
2022/12/14 07:19:48;;;;;;;16.00;11.30;;;;;;;-0.90;51.58;96424.38;8382591;28;20558;-71
2022/12/14 07:23:51;;;;;;;15.33;10.83;;;;;;;-0.32;50.74;96443.28;8382970;28;20228;-70
2022/12/14 07:27:55;;;;;;;15.70;11.00;;;;;;;-0.06;49.93;96431.59;8382539;28;20525;-69
2022/12/14 07:31:58;;;;;;;16.60;11.60;;;;;;;-0.66;50.81;96423.78;8382811;28;20233;-69
2022/12/14 07:36:02;;;;;;;18.13;11.37;;;;;;;-0.37;50.74;96434.94;8382978;28;20403;-70
2022/12/14 07:40:06;;;;;;;18.53;11.27;;;;;;;-0.22;50.09;96444.72;8382373;28;20229;-69
2022/12/14 07:44:11;;;;;;;14.27;10.37;;;;;;;0.27;49.31;96437.50;8382477;28;20259;-69
2022/12/14 07:48:14;;;;;;;17.87;11.20;;;;;;;0.09;48.99;96443.91;8382399;28;20278;-70
2022/12/14 07:52:17;;;;;;;15.43;11.40;;;;;;;0.00;48.86;96403.44;8382779;28;20466;-69
2022/12/14 07:56:21;;;;;;;15.77;10.87;;;;;;;0.52;48.48;96450.34;8382346;28;20229;-70
2022/12/14 08:00:25;;;;;;;13.93;10.67;;;;;;;1.03;47.50;96446.31;8382311;28;20274;-71
2022/12/14 08:04:27;;;;;;;16.50;11.10;;;;;;;0.96;47.09;96447.38;8382118;28;20236;-71
2022/12/14 08:08:30;;;;;;;15.53;11.00;;;;;;;-0.16;49.52;96442.91;8381481;28;20228;-71
2022/12/14 08:12:33;;;;;;;17.40;10.90;;;;;;;-0.75;52.36;96413.84;8381922;28;20225;-71
2022/12/14 08:16:37;;;;;;;15.47;10.37;;;;;;;-0.54;50.78;96414.19;8381757;28;20565;-71
2022/12/14 08:20:40;;;;;;;20.73;13.13;;;;;;;-0.76;51.82;96398.63;8381519;28;20275;-71
2022/12/14 08:24:42;;;;;;;18.57;11.37;;;;;;;-0.40;50.30;96394.31;8381163;28;20233;-70
2022/12/14 08:28:53;;;;;;;20.60;12.80;;;;;;;0.32;49.73;96391.50;8381506;28;20236;-71
2022/12/14 08:32:57;;;;;;;18.30;11.80;;;;;;;-0.03;49.85;96362.81;8380891;28;20229;-71
2022/12/14 08:37:00;;;;;;;18.70;12.90;;;;;;;-0.60;51.71;96352.44;8380730;28;20225;-70
2022/12/14 08:41:04;;;;;;;18.80;11.93;;;;;;;-0.56;51.32;96334.56;8380602;28;20336;-71
2022/12/14 08:45:07;;;;;;;15.63;11.77;;;;;;;-0.42;51.39;96328.25;8380809;28;20252;-70
2022/12/14 08:49:12;;;;;;;17.47;11.97;;;;;;;-0.23;50.67;96333.66;8380966;28;20252;-70
2022/12/14 08:53:15;;;;;;;17.07;11.67;;;;;;;-0.33;51.04;96327.13;8380507;28;20228;-71
2022/12/14 08:57:18;;;;;;;20.20;12.20;;;;;;;-0.23;50.86;96332.81;8380409;28;20228;-70
2022/12/14 09:01:23;;;;;;;15.80;11.83;;;;;;;-0.94;52.13;96286.38;8380507;28;20240;-71
2022/12/14 09:05:36;;;;;;;15.30;10.93;;;;;;;-0.43;51.54;96330.81;8380129;28;20233;-70
2022/12/14 09:09:38;;;;;;;16.73;11.50;;;;;;;-0.19;51.27;96344.59;8380003;28;20224;-71
2022/12/14 09:13:41;;;;;;;19.03;12.27;;;;;;;-0.30;51.61;96310.97;8380407;28;20235;-71
2022/12/14 09:17:44;;;;;;;15.63;11.70;;;;;;;-0.18;50.79;96322.53;8380087;28;20229;-68
2022/12/14 09:21:48;;;;;;;16.17;11.67;;;;;;;-0.35;51.00;96318.72;8384203;28;20228;-71
2022/12/14 09:25:59;;;;;;;17.03;12.40;;;;;;;0.53;50.06;96317.03;8386725;28;20239;-69
2022/12/14 09:30:01;;;;;;;17.30;11.37;;;;;;;0.56;49.57;96311.00;8386419;28;20224;-69
2022/12/14 09:34:04;;;;;;;18.23;11.90;;;;;;;0.78;48.60;96319.63;8386715;28;20275;-69
2022/12/14 09:38:08;;;;;;;15.37;11.00;;;;;;;1.26;47.58;96301.94;8386645;28;20224;-72
2022/12/14 09:42:20;;;;;;;16.20;11.47;;;;;;;0.56;49.12;96326.28;8386663;28;20239;-72
2022/12/14 09:46:30;;;;;;;17.20;11.67;;;;;;;-0.17;50.02;96325.03;8386289;28;20242;-70
2022/12/14 09:50:33;;;;;;;16.07;11.17;;;;;;;-0.28;50.85;96324.50;8386440;28;20217;-70
2022/12/14 09:54:38;;;;;;;15.40;11.07;;;;;;;0.25;50.92;96323.81;8386587;28;20314;-70
2022/12/14 09:58:50;;;;;;;17.73;11.53;;;;;;;-0.19;53.32;96334.41;8386109;28;20220;-72
2022/12/14 10:03:16;;;;;;;15.50;11.47;;;;;;;2.64;54.32;96350.56;8385411;28;20517;-72
2022/12/14 10:07:24;;;;;;;16.50;11.63;;;;;;;2.47;48.03;96335.84;8385652;28;20542;-72
2022/12/14 10:11:32;;;;;;;16.50;12.50;;;;;;;1.24;51.34;96344.50;8385713;28;20529;-72
2022/12/14 10:15:40;;;;;;;15.20;11.57;;;;;;;0.59;55.54;96333.81;8385635;28;20233;-71
2022/12/14 10:19:46;;;;;;;20.53;13.50;;;;;;;0.93;57.15;96308.13;8385502;28;20402;-73
2022/12/14 10:23:53;;;;;;;18.90;13.73;;;;;;;0.65;58.54;96289.47;8385294;28;20455;-71
2022/12/14 10:28:00;;;;;;;17.77;12.53;;;;;;;0.76;59.27;96290.81;8384440;28;20591;-70
2022/12/14 10:32:20;;;;;;;16.37;12.97;;;;;;;0.22;61.57;96273.81;8384542;28;20252;-70
2022/12/14 10:36:27;;;;;;;17.33;13.40;;;;;;;0.24;60.98;96272.06;8384537;28;20225;-70
2022/12/14 10:40:31;;;;;;;17.93;13.17;;;;;;;-0.08;61.71;96263.66;8384786;28;20229;-71
2022/12/14 10:44:43;;;;;;;17.60;13.20;;;;;;;-0.18;62.34;96241.91;8384374;28;20231;-70
2022/12/14 10:48:57;;;;;;;16.70;12.27;;;;;;;-0.07;62.23;96227.19;8383822;28;20228;-70
2022/12/14 10:53:00;;;;;;;18.90;13.57;;;;;;;0.04;61.72;96234.50;8384133;28;20236;-70
2022/12/14 10:57:02;;;;;;;20.00;13.17;;;;;;;-0.13;62.46;96245.19;8384257;28;20229;-70
2022/12/14 11:01:11;;;;;;;16.33;12.33;;;;;;;-0.07;61.20;96236.53;8383928;28;20512;-70
2022/12/14 11:05:23;;;;;;;17.70;13.03;;;;;;;-0.49;63.32;96230.09;8383610;28;20261;-70
2022/12/14 11:09:26;;;;;;;30.37;19.87;;;;;;;-0.12;61.63;96236.66;8383685;28;20225;-70
2022/12/14 11:13:29;;;;;;;25.03;16.80;;;;;;;0.04;61.60;96246.38;8383502;28;20225;-70
2022/12/14 11:17:35;;;;;;;31.47;21.60;;;;;;;0.34;60.53;96224.22;8383500;28;20270;-70
2022/12/14 11:21:39;;;;;;;23.33;15.90;;;;;;;0.17;60.90;96205.25;8383431;28;20233;-70
2022/12/14 11:25:43;;;;;;;16.97;12.53;;;;;;;0.87;59.19;96211.44;8382802;28;20415;-70
2022/12/14 11:29:48;;;;;;;22.53;16.03;;;;;;;1.16;58.05;96209.59;8383220;28;20232;-71
2022/12/14 11:33:54;;;;;;;26.13;17.53;;;;;;;1.27;57.56;96192.22;8382863;28;20229;-71
2022/12/14 11:38:00;;;;;;;18.93;13.33;;;;;;;1.00;58.47;96208.50;8382209;28;20255;-70
2022/12/14 11:42:03;;;;;;;16.50;12.97;;;;;;;1.31;58.38;96200.59;8382198;28;20239;-71
2022/12/14 11:46:06;;;;;;;19.30;14.40;;;;;;;1.80;57.56;96211.56;8382222;28;20241;-71
2022/12/14 11:50:23;;;;;;;18.40;12.90;;;;;;;1.71;56.72;96222.09;8382577;28;20224;-70
2022/12/14 11:54:26;;;;;;;20.00;14.00;;;;;;;1.99;55.96;96204.03;8382121;28;20221;-69
2022/12/14 11:58:31;;;;;;;18.57;13.87;;;;;;;2.22;55.70;96213.34;8382327;28;20256;-68
2022/12/14 12:02:37;;;;;;;18.80;13.90;;;;;;;1.61;57.80;96216.50;8381925;28;20225;-69
2022/12/14 12:06:42;;;;;;;20.90;14.77;;;;;;;1.75;56.19;96205.78;8381377;28;20232;-69
2022/12/14 12:10:47;;;;;;;17.50;12.97;;;;;;;2.31;54.91;96207.88;8381203;28;20298;-69
2022/12/14 12:14:55;;;;;;;20.13;15.53;;;;;;;2.25;55.71;96203.03;8380695;28;20296;-68
2022/12/14 12:19:02;;;;;;;16.30;13.07;;;;;;;2.56;54.78;96199.25;8381297;28;20240;-69
2022/12/14 12:23:19;;;;;;;21.03;15.00;;;;;;;2.26;55.49;96175.75;8380865;28;20231;-69
2022/12/14 12:27:23;;;;;;;22.30;16.40;;;;;;;2.14;56.08;96198.34;8380307;28;20279;-69
2022/12/14 12:31:29;;;;;;;20.17;14.87;;;;;;;2.13;55.95;96200.94;8380807;28;20262;-69
2022/12/14 12:35:39;;;;;;;16.03;12.97;;;;;;;1.79;57.48;96197.16;8380436;28;20331;-69
2022/12/14 12:39:44;;;;;;;22.27;17.27;;;;;;;2.05;56.72;96190.19;8380626;28;20320;-69
2022/12/14 12:43:53;;;;;;;21.13;15.40;;;;;;;2.25;58.68;96180.03;8380588;28;20255;-69
2022/12/14 12:48:00;;;;;;;22.17;15.47;;;;;;;2.48;56.23;96161.22;8379718;28;20424;-68
2022/12/14 12:52:05;;;;;;;19.43;14.67;;;;;;;2.48;56.06;96174.00;8380141;28;20296;-69
2022/12/14 12:56:12;;;;;;;21.77;15.83;;;;;;;1.82;56.81;96176.59;8380210;28;20240;-68
2022/12/14 13:00:17;;;;;;;17.07;13.90;;;;;;;2.60;55.68;96176.94;8380235;28;20247;-68
2022/12/14 13:04:27;;;;;;;25.73;19.47;;;;;;;2.22;55.33;96190.38;8380088;28;20228;-69
2022/12/14 13:08:32;;;;;;;19.10;14.93;;;;;;;2.33;57.09;96190.78;8380076;28;20222;-69
2022/12/14 13:12:38;;;;;;;18.13;14.93;;;;;;;1.72;57.86;96183.78;8379636;28;20235;-69
2022/12/14 13:16:41;;;;;;;22.63;17.73;;;;;;;1.31;57.59;96055.22;8379758;28;20216;-70
2022/12/14 13:20:44;;;;;;;20.77;15.40;;;;;;;2.11;57.11;96189.94;8379781;28;20239;-69
2022/12/14 13:24:52;;;;;;;18.67;15.73;;;;;;;2.39;55.63;96189.69;8378908;28;20436;-69
2022/12/14 13:29:07;;;;;;;21.00;15.77;;;;;;;1.79;56.58;96179.28;8379342;28;20225;-69
2022/12/14 13:33:27;;;;;;;21.90;15.73;;;;;;;1.55;58.09;96176.75;8379909;28;20643;-69
2022/12/14 13:38:05;;;;;;;21.40;14.60;;;;;;;2.18;57.07;96190.56;8379528;28;20232;-69
2022/12/14 13:42:12;;;;;;;19.83;15.60;;;;;;;2.17;56.72;96183.78;8379019;28;20227;-70
2022/12/14 13:46:20;;;;;;;21.03;15.67;;;;;;;2.38;56.46;96197.41;8378779;28;20240;-71
2022/12/14 13:50:28;;;;;;;20.53;15.90;;;;;;;2.17;57.47;96199.09;8379159;28;20301;-71
2022/12/14 13:54:41;;;;;;;20.10;16.10;;;;;;;2.14;56.90;96200.06;8379104;28;20225;-71
2022/12/14 13:58:45;;;;;;;24.90;16.53;;;;;;;2.35;56.34;96198.38;8378641;28;20232;-69
2022/12/14 14:02:52;;;;;;;21.03;16.40;;;;;;;2.00;56.71;96192.94;8379237;28;20229;-70
2022/12/14 14:06:56;;;;;;;19.67;15.27;;;;;;;1.60;59.36;96180.84;8380825;28;20229;-69
2022/12/14 14:11:40;;;;;;;21.70;15.87;;;;;;;2.40;56.63;96208.41;8385216;28;20240;-70
2022/12/14 14:15:49;;;;;;;25.97;17.40;;;;;;;1.64;57.89;96206.19;8384845;28;20240;-70
2022/12/14 14:20:31;;;;;;;23.47;17.63;;;;;;;1.51;58.72;96202.44;8384672;28;20409;-70
2022/12/14 14:24:53;;;;;;;23.87;17.50;;;;;;;1.56;58.59;96203.94;8384918;28;20220;-70
2022/12/14 14:29:21;;;;;;;23.47;17.40;;;;;;;1.80;57.22;96206.44;8384665;28;20255;-71
2022/12/14 14:33:31;;;;;;;22.87;17.63;;;;;;;2.09;57.17;96214.72;8384315;28;20535;-70
2022/12/14 14:37:58;;;;;;;23.37;16.57;;;;;;;1.88;58.05;96209.53;8384566;28;20528;-70
2022/12/14 14:42:01;;;;;;;21.93;16.33;;;;;;;1.86;57.98;96207.94;8383804;28;20240;-70
2022/12/14 14:46:06;;;;;;;22.67;16.60;;;;;;;1.35;59.53;96208.09;8383787;28;20237;-69
2022/12/14 14:50:20;;;;;;;22.30;16.07;;;;;;;1.98;57.98;96193.88;8383689;28;20236;-70
2022/12/14 14:54:29;;;;;;;24.73;18.33;;;;;;;1.96;57.48;96191.38;8384274;28;20374;-69
2022/12/14 14:59:30;;;;;;;23.70;17.70;;;;;;;2.11;57.32;96228.25;8383523;28;20304;-68
2022/12/14 15:03:41;;;;;;;22.67;16.03;;;;;;;1.91;58.68;96229.84;8383808;28;20521;-70
2022/12/14 15:07:43;;;;;;;20.63;16.13;;;;;;;2.34;57.21;96232.47;8383628;28;20229;-70
2022/12/14 15:11:48;;;;;;;25.40;17.53;;;;;;;2.19;57.89;96246.69;8383522;28;20432;-70
2022/12/14 15:15:55;;;;;;;23.67;17.37;;;;;;;2.19;57.50;96249.25;8382981;28;20426;-68
2022/12/14 15:20:00;;;;;;;23.57;17.27;;;;;;;2.19;56.52;96258.59;8382050;28;20224;-69
2022/12/14 15:24:03;;;;;;;22.17;16.37;;;;;;;2.34;57.33;96258.88;8383173;28;20463;-69
2022/12/14 15:28:07;;;;;;;23.60;16.57;;;;;;;2.15;56.73;96268.97;8382802;28;20575;-69
2022/12/14 15:32:15;;;;;;;22.63;16.37;;;;;;;2.43;56.44;96265.31;8383082;28;20275;-69
2022/12/14 15:36:19;;;;;;;22.63;16.20;;;;;;;2.32;56.90;96257.25;8382820;28;20235;-70
2022/12/14 15:40:24;;;;;;;22.87;17.43;;;;;;;2.37;56.65;96265.56;8382715;28;20515;-70
2022/12/14 15:44:26;;;;;;;26.17;18.97;;;;;;;1.94;57.60;96272.31;8382744;28;20221;-70
2022/12/14 15:48:33;;;;;;;22.87;17.60;;;;;;;2.34;56.81;96278.44;8382449;28;20429;-70
2022/12/14 15:52:36;;;;;;;26.77;20.20;;;;;;;2.35;57.11;96275.03;8382504;28;20532;-71
2022/12/14 15:56:39;;;;;;;29.57;22.07;;;;;;;2.43;56.66;96288.31;8382374;28;20225;-70
2022/12/14 16:00:44;;;;;;;28.33;20.97;;;;;;;2.41;56.90;96292.66;8382083;28;20225;-69
2022/12/14 16:04:48;;;;;;;24.00;17.53;;;;;;;2.59;56.70;96288.56;8381689;28;20236;-70
2022/12/14 16:08:55;;;;;;;22.83;17.13;;;;;;;2.61;56.59;96291.91;8381259;28;20229;-71
2022/12/14 16:13:00;;;;;;;26.73;18.67;;;;;;;2.60;56.53;96290.22;8381115;28;20292;-71
2022/12/14 16:17:03;;;;;;;23.50;18.00;;;;;;;2.63;56.37;96289.28;8381732;28;20579;-70
2022/12/14 16:21:22;;;;;;;20.85;18.42;;;;;;;3.07;55.07;96296.91;8380388;28;20418;-72
2022/12/14 16:25:25;;;;;;;22.20;16.27;;;;;;;2.81;55.66;96293.66;8381156;28;20229;-72
2022/12/14 16:29:29;;;;;;;21.93;16.30;;;;;;;2.61;55.84;96283.38;8380675;28;20264;-71
2022/12/14 16:33:34;;;;;;;23.00;16.87;;;;;;;2.76;55.78;96315.19;8381100;28;20232;-71
2022/12/14 16:37:39;;;;;;;23.23;17.67;;;;;;;2.64;55.93;96313.94;8380927;28;20236;-70
2022/12/14 16:41:44;;;;;;;21.57;16.37;;;;;;;2.73;56.10;96323.81;8380773;28;20229;-70
2022/12/14 16:46:07;;;;;;;23.87;18.00;;;;;;;2.76;55.93;96326.25;8380721;28;20547;-70
2022/12/14 16:50:20;;;;;;;24.03;17.27;;;;;;;2.77;55.66;96329.63;8380315;28;20224;-70
2022/12/14 16:55:11;;;;;;;45.80;28.70;;;;;;;2.81;55.60;96326.88;8380282;28;20228;-70
2022/12/14 16:59:21;;;;;;;29.13;20.50;;;;;;;2.66;55.55;96332.59;8380061;28;20221;-70
2022/12/14 17:03:23;;;;;;;27.03;20.07;;;;;;;2.78;55.44;96337.25;8380237;28;20232;-70
2022/12/14 17:07:28;;;;;;;31.93;21.30;;;;;;;2.71;56.04;96351.97;8379897;28;20236;-70
2022/12/14 17:11:32;;;;;;;25.33;18.47;;;;;;;2.71;56.07;96361.38;8380049;28;20225;-70
2022/12/14 17:15:35;;;;;;;24.87;17.30;;;;;;;2.72;55.95;96374.13;8379809;28;20331;-69
2022/12/14 17:19:39;;;;;;;24.10;16.33;;;;;;;2.83;55.93;96372.84;8380238;28;20403;-70
2022/12/14 17:23:43;;;;;;;23.63;17.53;;;;;;;2.75;55.74;96365.47;8379903;28;20551;-69
2022/12/14 17:27:48;;;;;;;24.67;17.93;;;;;;;2.64;56.09;96382.97;8379684;28;20228;-70
2022/12/14 17:31:53;;;;;;;26.47;19.00;;;;;;;2.72;56.09;96386.91;8380082;28;20251;-70
2022/12/14 17:35:56;;;;;;;24.40;18.30;;;;;;;2.78;55.68;96387.53;8379442;28;20225;-70
2022/12/14 17:39:59;;;;;;;24.00;18.57;;;;;;;2.67;55.47;96395.63;8379782;28;20231;-70
2022/12/14 17:44:04;;;;;;;23.20;17.97;;;;;;;2.83;55.65;96398.41;8385828;28;20255;-70
2022/12/14 17:48:10;;;;;;;24.13;18.17;;;;;;;2.65;56.00;96405.91;8386153;28;20282;-70
2022/12/14 17:52:16;;;;;;;25.93;19.03;;;;;;;2.72;55.82;96403.94;8386180;28;20236;-71
2022/12/14 17:56:19;;;;;;;24.63;18.47;;;;;;;2.74;56.05;96414.94;8386061;28;20235;-71
2022/12/14 18:04:47;;;;;;;25.37;19.03;;;;;;;2.60;56.41;96427.41;8385817;28;20582;-70
2022/12/14 18:08:50;;;;;;;25.33;18.90;;;;;;;2.66;56.15;96430.56;8385282;28;20241;-70
2022/12/14 18:12:53;;;;;;;25.60;19.23;;;;;;;2.70;56.05;96434.69;8385105;28;20229;-69
2022/12/14 18:16:59;;;;;;;28.03;20.33;;;;;;;2.65;55.93;96436.59;8385133;28;20237;-70
2022/12/14 18:21:03;;;;;;;25.93;19.03;;;;;;;2.73;55.65;96433.72;8385181;28;20233;-70
2022/12/14 18:25:22;;;;;;;29.80;20.63;;;;;;;2.65;55.62;96433.19;8385133;28;20236;-70
2022/12/14 18:29:24;;;;;;;25.80;19.13;;;;;;;2.82;55.46;96437.66;8385031;28;20236;-70
2022/12/14 18:33:30;;;;;;;25.70;18.67;;;;;;;2.65;55.73;96420.41;8384865;28;20228;-70
2022/12/14 18:37:33;;;;;;;37.00;24.10;;;;;;;7.47;75.70;96433.91;8384857;28;20224;-68
2022/12/14 18:41:36;;;;;;;25.80;20.20;;;;;;;5.65;52.82;96435.66;8384776;28;20294;-70
2022/12/14 18:45:39;;;;;;;26.17;19.50;;;;;;;4.34;53.59;96440.88;8383602;28;20240;-69
2022/12/14 18:49:43;;;;;;;27.70;20.50;;;;;;;3.58;53.21;96392.00;8382729;28;20225;-70
2022/12/14 18:53:45;;;;;;;29.07;21.00;;;;;;;3.67;53.34;96445.41;8382138;28;20304;-70
2022/12/14 18:57:50;;;;;;;39.10;25.80;;;;;;;3.50;53.88;96453.75;8382080;28;20237;-70
2022/12/14 19:01:52;;;;;;;31.37;22.43;;;;;;;3.28;54.04;96461.47;8381628;28;20525;-70
2022/12/14 19:06:04;;;;;;;29.03;21.50;;;;;;;3.21;54.21;96467.72;8382010;28;20229;-70
2022/12/14 19:10:28;;;;;;;27.40;20.93;;;;;;;3.09;54.46;96457.06;8381671;28;20240;-70
2022/12/14 19:14:31;;;;;;;28.23;20.20;;;;;;;3.03;54.39;96482.06;8381868;28;20225;-70
2022/12/14 19:18:35;;;;;;;30.37;21.53;;;;;;;2.84;53.95;96477.63;8381743;28;20291;-70
2022/12/14 19:22:39;;;;;;;31.60;23.03;;;;;;;2.67;54.18;96452.69;8381442;28;20225;-71